Time;durP1;ratioP1;P1;durP2;ratioP2;P2;SDS_P1;SDS_P2;PMS_P1;PMS_P2;Temp;Humidity;BMP_temperature;BMP_pressure;BME280_temperature;BME280_humidity;BME280_pressure;Samples;Min_cycle;Max_cycle;Signal;HPM_P1;HPM_P2
2021/12/24 00:01:54;;;;;;;103.50;48.50;;;;;;;5.60;100.00;100429.47;5051586;28;20037;-83
2021/12/24 00:04:21;;;;;;;112.00;51.10;;;;;;;6.03;100.00;100505.13;5052068;28;20052;-80
2021/12/24 00:06:48;;;;;;;106.68;48.63;;;;;;;6.10;100.00;100512.53;5018347;28;20405;-79
2021/12/24 00:09:20;;;;;;;101.22;46.67;;;;;;;5.90;100.00;100475.00;5051949;28;20025;-83
2021/12/24 00:11:46;;;;;;;101.68;48.47;;;;;;;6.16;100.00;100507.06;5052120;28;20027;-80
2021/12/24 00:14:16;;;;;;;102.15;48.28;;;;;;;6.16;100.00;100500.22;5052173;28;20435;-82
2021/12/24 00:16:50;;;;;;;99.20;46.53;;;;;;;5.85;100.00;100449.63;5052099;28;20416;-82
2021/12/24 00:19:37;;;;;;;91.45;46.00;;;;;;;6.20;100.00;100513.72;5034496;28;20116;-79
2021/12/24 00:35:36;;;;;;;86.50;43.63;;;;;;;6.12;100.00;100477.38;5055903;28;20095;-80
2021/12/24 00:38:05;;;;;;;76.45;41.30;;;;;;;6.27;100.00;100495.38;5037332;28;20041;-82
2021/12/24 00:40:33;;;;;;;78.43;43.70;;;;;;;6.08;100.00;100448.50;5055801;28;20024;-80
2021/12/24 00:42:58;;;;;;;78.32;42.65;;;;;;;6.31;100.00;100489.19;5055632;28;20025;-83
2021/12/24 00:45:27;;;;;;;85.90;45.80;;;;;;;6.27;100.00;100484.28;5055756;28;20151;-84
2021/12/24 00:47:54;;;;;;;82.18;45.08;;;;;;;5.90;100.00;100413.50;5055453;28;20458;-80
2021/12/24 00:50:24;;;;;;;86.88;46.13;;;;;;;6.32;100.00;100484.91;5055269;28;20492;-82
2021/12/24 00:52:56;;;;;;;81.65;43.53;;;;;;;6.22;100.00;100474.28;5055203;28;20429;-80
2021/12/24 00:55:24;;;;;;;88.35;46.75;;;;;;;6.28;100.00;100468.00;5037340;28;20086;-82
2021/12/24 00:57:55;;;;;;;86.47;46.28;;;;;;;5.98;100.00;100417.38;5055344;28;20396;-81
2021/12/24 01:00:26;;;;;;;85.05;46.45;;;;;;;6.40;100.00;100474.25;5055444;28;20027;-84
2021/12/24 01:02:53;;;;;;;91.22;48.40;;;;;;;6.38;100.00;100470.91;5055070;28;20049;-80
2021/12/24 01:05:22;;;;;;;87.47;47.25;;;;;;;6.40;100.00;100474.25;5055222;28;20083;-83
2021/12/24 01:07:49;;;;;;;91.82;46.17;;;;;;;6.09;100.00;100421.13;5055189;28;20028;-79
2021/12/24 01:10:20;;;;;;;88.18;47.80;;;;;;;6.43;100.00;100479.22;5055240;28;20435;-81
2021/12/24 01:12:45;;;;;;;87.20;47.63;;;;;;;6.45;100.00;100473.09;5055194;28;20025;-83
2021/12/24 01:15:13;;;;;;;88.28;47.40;;;;;;;6.48;100.00;100474.66;5054973;28;20083;-81
2021/12/24 01:20:16;;;;;;;83.25;45.60;;;;;;;6.53;100.00;100472.72;5055025;28;20036;-77
2021/12/24 01:25:34;;;;;;;87.43;47.13;;;;;;;6.48;100.00;100451.59;5055050;28;20040;-79
2021/12/24 01:28:41;;;;;;;86.55;46.85;;;;;;;6.48;100.00;100454.97;5036615;28;20428;-81
2021/12/24 01:39:36;;;;;;;96.05;49.15;;;;;;;6.63;100.00;100466.19;5054479;28;20128;-79
2021/12/24 01:44:45;;;;;;;105.95;53.28;;;;;;;6.72;100.00;100467.44;5054638;28;20044;-84
2021/12/24 01:47:10;;;;;;;115.68;52.00;;;;;;;6.77;100.00;100470.59;5054348;28;20032;-83
2021/12/24 01:49:36;;;;;;;114.03;54.60;;;;;;;6.61;100.00;100444.91;5054223;28;20095;-82
2021/12/24 01:52:03;;;;;;;114.32;55.08;;;;;;;6.74;100.00;100463.88;5054370;28;20029;-79
2021/12/24 01:54:29;;;;;;;107.50;54.45;;;;;;;6.81;100.00;100465.22;5054251;28;20029;-81
2021/12/24 01:56:54;;;;;;;115.68;55.17;;;;;;;6.72;100.00;100452.06;5054330;28;20113;-81
2021/12/24 01:59:20;;;;;;;125.28;57.00;;;;;;;6.87;100.00;100461.47;5054188;28;20112;-83
2021/12/24 02:01:46;;;;;;;121.60;56.40;;;;;;;6.73;100.00;100441.69;5053892;28;20374;-81
2021/12/24 02:04:14;;;;;;;132.18;59.85;;;;;;;6.91;100.00;100465.56;5053965;28;20080;-83
2021/12/24 02:06:40;;;;;;;133.07;58.38;;;;;;;6.93;100.00;100463.72;5054067;28;20025;-81
2021/12/24 02:09:06;;;;;;;132.40;60.28;;;;;;;6.99;100.00;100460.84;5053885;28;20021;-83
2021/12/24 02:11:37;;;;;;;128.88;58.17;;;;;;;6.99;100.00;100463.41;5053831;28;20439;-78
2021/12/24 02:14:06;;;;;;;135.13;57.00;;;;;;;7.03;100.00;100462.31;5053885;28;20032;-84
2021/12/24 02:29:55;;;;;;;125.93;55.63;;;;;;;7.17;100.00;100459.00;5053865;28;20043;-83
2021/12/24 02:32:21;;;;;;;132.80;57.47;;;;;;;6.97;100.00;100431.84;5053663;28;20033;-81
2021/12/24 02:34:47;;;;;;;127.60;57.13;;;;;;;6.98;100.00;100432.66;5053647;28;20358;-81
2021/12/24 02:37:12;;;;;;;123.40;56.72;;;;;;;7.23;100.00;100456.09;5053367;28;20036;-80
2021/12/24 02:39:38;;;;;;;123.85;56.58;;;;;;;7.27;100.00;100467.84;5051959;28;20048;-85
2021/12/24 02:42:16;;;;;;;126.18;57.53;;;;;;;7.22;100.00;100454.47;5053617;28;20485;-80
2021/12/24 02:44:42;;;;;;;120.95;53.20;;;;;;;7.17;100.00;100430.75;5053119;28;20424;-82
2021/12/24 02:54:59;;;;;;;122.00;53.03;;;;;;;7.25;100.00;100436.28;5052712;28;20039;-81
2021/12/24 02:57:27;;;;;;;124.00;54.80;;;;;;;7.40;100.00;100453.44;5053053;28;20104;-84
2021/12/24 03:00:06;;;;;;;116.97;53.05;;;;;;;7.40;100.00;100453.44;5052926;28;20025;-79
2021/12/24 03:02:32;;;;;;;124.22;53.28;;;;;;;7.32;100.00;100429.09;5052871;28;20451;-80
2021/12/24 03:04:58;;;;;;;127.68;54.22;;;;;;;7.42;100.00;100443.06;5052982;28;20086;-80
2021/12/24 03:07:24;;;;;;;122.45;50.70;;;;;;;7.33;100.00;100423.88;5052938;28;20456;-86
2021/12/24 03:09:50;;;;;;;122.93;52.75;;;;;;;7.52;100.00;100443.38;5052885;28;20104;-80
2021/12/24 03:12:15;;;;;;;128.60;53.25;;;;;;;7.53;100.00;100442.47;5052831;28;20033;-82
2021/12/24 03:14:41;;;;;;;119.97;51.20;;;;;;;7.42;100.00;100431.06;5052824;28;20037;-80
2021/12/24 03:17:11;;;;;;;130.13;56.95;;;;;;;7.35;100.00;100408.38;5052728;28;20103;-81
2021/12/24 03:19:37;;;;;;;118.90;50.55;;;;;;;7.55;100.00;100448.34;5052650;28;20079;-78
2021/12/24 03:24:38;;;;;;;114.93;47.25;;;;;;;7.56;100.00;100448.25;5052644;28;20135;-79
2021/12/24 03:27:06;;;;;;;106.13;46.95;;;;;;;7.58;100.00;100449.03;5052370;28;20044;-78
2021/12/24 03:29:32;;;;;;;110.50;45.10;;;;;;;7.60;100.00;100439.47;5052533;28;20123;-83
2021/12/24 03:31:57;;;;;;;107.60;44.20;;;;;;;7.49;100.00;100434.13;5052458;28;20111;-81
2021/12/24 03:34:23;;;;;;;97.20;42.22;;;;;;;7.62;100.00;100455.63;5052444;28;20029;-77
2021/12/24 03:36:49;;;;;;;102.35;45.50;;;;;;;7.36;100.00;100415.16;5052520;28;20028;-78
2021/12/24 03:39:16;;;;;;;89.28;41.42;;;;;;;7.65;100.00;100454.63;5052554;28;20036;-78
2021/12/24 03:41:42;;;;;;;101.90;40.78;;;;;;;7.65;100.00;100459.75;5052254;28;20035;-82
2021/12/24 03:44:10;;;;;;;83.68;39.13;;;;;;;7.52;100.00;100436.50;5052429;28;20025;-78
2021/12/24 03:46:47;;;;;;;85.55;38.95;;;;;;;7.59;100.00;100454.97;5052291;28;20056;-79
2021/12/24 03:49:21;;;;;;;92.45;38.15;;;;;;;7.64;100.00;100458.09;5052304;28;20037;-83
2021/12/24 03:51:57;;;;;;;73.28;37.30;;;;;;;7.66;100.00;100459.66;5052473;28;20048;-81
2021/12/24 03:57:06;;;;;;;71.90;34.40;;;;;;;7.52;100.00;100435.69;5052018;28;20396;-81
2021/12/24 03:59:32;;;;;;;71.95;35.42;;;;;;;7.41;100.00;100415.75;5052444;28;20025;-78
2021/12/24 04:01:57;;;;;;;65.88;32.33;;;;;;;7.54;100.00;100444.94;5052228;28;20123;-85
2021/12/24 04:04:22;;;;;;;74.82;33.40;;;;;;;7.63;100.00;100457.28;5052344;28;20029;-78
2021/12/24 04:06:48;;;;;;;67.68;31.23;;;;;;;7.63;100.00;100456.44;5054751;28;20031;-81
2021/12/24 04:09:13;;;;;;;67.90;31.33;;;;;;;7.52;100.00;100440.81;5056111;28;20028;-82
2021/12/24 04:11:40;;;;;;;58.55;29.45;;;;;;;7.62;100.00;100458.19;5056083;28;20472;-80
2021/12/24 04:14:05;;;;;;;60.45;30.05;;;;;;;7.22;100.00;100389.44;5037844;28;20037;-82
2021/12/24 04:16:32;;;;;;;56.00;28.23;;;;;;;7.45;100.00;100432.63;5056137;28;20091;-82
2021/12/24 04:24:51;;;;;;;55.38;27.73;;;;;;;7.58;100.00;100472.16;4994501;28;20066;-82
2021/12/24 04:27:17;;;;;;;56.28;26.77;;;;;;;7.60;100.00;100472.06;4994417;28;20042;-79
2021/12/24 04:29:43;;;;;;;61.33;27.63;;;;;;;7.59;100.00;100478.09;4994636;28;20034;-82
2021/12/24 04:32:16;;;;;;;57.72;26.88;;;;;;;7.59;100.00;100471.22;4994473;28;20033;-81
2021/12/24 04:34:46;;;;;;;50.53;24.50;;;;;;;7.46;100.00;100452.25;4994298;28;20403;-80
2021/12/24 05:01:16;;;;;;;40.95;19.48;;;;;;;7.46;100.00;100437.66;5051964;28;20087;-84
2021/12/24 05:03:44;;;;;;;38.57;19.53;;;;;;;7.53;100.00;100458.72;5055319;28;20088;-81
2021/12/24 05:06:29;;;;;;;41.60;18.63;;;;;;;7.26;100.00;100421.72;5055165;28;20013;-81
2021/12/24 05:09:05;;;;;;;43.60;19.80;;;;;;;7.31;100.00;100430.84;5055189;28;20036;-82
2021/12/24 05:11:31;;;;;;;41.60;18.25;;;;;;;7.50;100.00;100456.31;5055033;28;20112;-83
2021/12/24 05:13:56;;;;;;;48.05;18.05;;;;;;;7.52;100.00;100471.66;5055041;28;20033;-84
2021/12/24 05:16:37;;;;;;;34.05;17.60;;;;;;;7.53;100.00;100463.03;5055030;28;20075;-81
2021/12/24 05:21:35;;;;;;;38.60;16.85;;;;;;;7.41;100.00;100455.09;5054954;28;20037;-82
2021/12/24 05:24:06;;;;;;;42.53;17.50;;;;;;;7.47;100.00;100462.47;5055074;28;20096;-84
2021/12/24 05:26:35;;;;;;;38.03;16.45;;;;;;;7.43;100.00;100458.41;5054590;28;20029;-80
2021/12/24 05:29:01;;;;;;;36.30;16.05;;;;;;;7.25;100.00;100433.72;5054722;28;20090;-85
2021/12/24 05:31:28;;;;;;;36.83;17.33;;;;;;;7.37;100.00;100458.72;5054768;28;20049;-78
2021/12/24 05:33:53;;;;;;;44.03;16.95;;;;;;;7.26;100.00;100437.94;5054468;28;20025;-82
2021/12/24 05:36:19;;;;;;;38.45;15.48;;;;;;;7.24;100.00;100438.97;5055048;28;20032;-81
2021/12/24 05:38:46;;;;;;;38.78;16.48;;;;;;;7.42;100.00;100471.34;5054429;28;20029;-79
2021/12/24 05:41:12;;;;;;;37.13;16.02;;;;;;;7.43;100.00;100472.97;5054590;28;20498;-81
2021/12/24 05:43:38;;;;;;;36.80;16.10;;;;;;;7.42;100.00;100479.03;5054484;28;20016;-83
2021/12/24 05:46:03;;;;;;;33.45;16.27;;;;;;;7.41;100.00;100480.78;5054237;28;20126;-81
2021/12/24 05:48:28;;;;;;;31.35;15.43;;;;;;;7.17;100.00;100446.97;5054332;28;20017;-83
2021/12/24 05:50:54;;;;;;;33.17;15.73;;;;;;;7.40;100.00;100486.84;5053153;28;20052;-82
2021/12/24 05:53:20;;;;;;;39.22;16.42;;;;;;;7.35;100.00;100478.53;5054455;28;20059;-82
2021/12/24 05:55:45;;;;;;;36.55;16.33;;;;;;;7.35;100.00;100475.97;5054475;28;20083;-85
2021/12/24 05:58:11;;;;;;;32.08;15.27;;;;;;;7.38;100.00;100486.09;5054150;28;20075;-79
2021/12/24 06:00:39;;;;;;;36.13;17.15;;;;;;;7.40;100.00;100486.84;5054154;28;20040;-78
2021/12/24 06:03:07;;;;;;;39.13;16.65;;;;;;;7.39;100.00;100486.94;5053813;28;20512;-80
2021/12/24 06:05:34;;;;;;;37.35;17.35;;;;;;;7.38;100.00;100495.56;5054215;28;20443;-84
2021/12/24 06:07:59;;;;;;;37.10;15.38;;;;;;;7.38;100.00;100486.09;5054053;28;20393;-82
2021/12/24 06:10:25;;;;;;;40.42;16.52;;;;;;;7.31;100.00;100484.78;5054117;28;20029;-82
2021/12/24 06:12:50;;;;;;;37.35;16.70;;;;;;;7.27;100.00;100477.31;5054017;28;20032;-85
2021/12/24 06:15:20;;;;;;;30.30;14.85;;;;;;;7.31;100.00;100492.47;5053734;28;20527;-80
2021/12/24 06:17:47;;;;;;;42.65;16.25;;;;;;;7.34;100.00;100489.72;5053838;28;20025;-85
2021/12/24 06:20:12;;;;;;;33.22;15.77;;;;;;;7.10;100.00;100444.88;5054060;28;20370;-80
2021/12/24 06:22:38;;;;;;;36.92;14.95;;;;;;;7.33;100.00;100493.22;5054005;28;20035;-81
2021/12/24 06:25:03;;;;;;;34.83;15.30;;;;;;;7.35;100.00;100496.53;5053836;28;20529;-84
2021/12/24 06:27:30;;;;;;;34.75;15.90;;;;;;;7.24;100.00;100473.16;5053679;28;20056;-84
2021/12/24 06:29:55;;;;;;;34.67;14.98;;;;;;;7.28;100.00;100479.81;5052845;28;20511;-83
2021/12/24 06:32:21;;;;;;;35.35;14.85;;;;;;;7.36;100.00;100495.59;5053653;28;20029;-83
2021/12/24 06:34:48;;;;;;;37.33;15.30;;;;;;;7.11;100.00;100460.19;5053452;28;20024;-81
2021/12/24 06:37:14;;;;;;;34.15;15.55;;;;;;;7.36;100.00;100493.03;5053595;28;20053;-82
2021/12/24 06:39:39;;;;;;;36.58;15.43;;;;;;;7.32;100.00;100495.88;5053355;28;20079;-81
2021/12/24 06:42:05;;;;;;;34.70;15.77;;;;;;;7.35;100.00;100493.94;5053256;28;20469;-80
2021/12/24 06:44:32;;;;;;;37.17;15.00;;;;;;;7.34;100.00;100488.91;5053079;28;20032;-81
2021/12/24 06:46:57;;;;;;;36.05;15.32;;;;;;;7.34;100.00;100488.91;5053458;28;20028;-84
2021/12/24 06:49:23;;;;;;;31.23;15.43;;;;;;;7.24;100.00;100472.34;5053248;28;20028;-85
2021/12/24 06:51:48;;;;;;;35.97;16.38;;;;;;;7.21;100.00;100464.81;5053268;28;20079;-85
2021/12/24 06:54:13;;;;;;;30.20;15.77;;;;;;;7.28;100.00;100487.53;5053139;28;20029;-85
2021/12/24 06:56:39;;;;;;;36.40;15.57;;;;;;;7.17;100.00;100462.41;5053010;28;20032;-82
2021/12/24 06:59:04;;;;;;;39.83;15.50;;;;;;;7.09;100.00;100451.75;5034544;28;20041;-83
2021/12/24 07:01:30;;;;;;;31.10;15.27;;;;;;;7.22;100.00;100469.88;5053155;28;20107;-78
2021/12/24 07:03:55;;;;;;;36.35;15.65;;;;;;;7.33;100.00;100484.69;5052864;28;20492;-82
2021/12/24 07:06:22;;;;;;;33.67;15.27;;;;;;;7.38;100.00;100490.41;5053006;28;20056;-80
2021/12/24 07:08:48;;;;;;;36.70;14.98;;;;;;;7.34;100.00;100481.19;5053122;28;20025;-80
2021/12/24 07:11:14;;;;;;;31.35;13.57;;;;;;;7.37;100.00;100478.44;5034759;28;20473;-85
2021/12/24 07:13:40;;;;;;;36.13;15.35;;;;;;;7.39;100.00;100479.22;5052734;28;20051;-79
2021/12/24 07:16:05;;;;;;;32.00;14.73;;;;;;;7.41;100.00;100482.53;5052753;28;20066;-81
2021/12/24 07:18:30;;;;;;;28.25;14.45;;;;;;;7.41;100.00;100480.78;5052598;28;20040;-80
2021/12/24 07:20:56;;;;;;;29.60;15.18;;;;;;;7.43;100.00;100484.09;5053480;28;20021;-79
2021/12/24 07:23:21;;;;;;;34.47;14.90;;;;;;;7.34;100.00;100469.19;5053041;28;20449;-82
2021/12/24 07:25:46;;;;;;;31.58;14.90;;;;;;;7.33;100.00;100467.53;5052509;28;20021;-84
2021/12/24 07:28:12;;;;;;;31.85;14.10;;;;;;;7.47;100.00;100506.16;5052419;28;20541;-84
2021/12/24 07:30:37;;;;;;;27.95;12.93;;;;;;;7.48;100.00;100506.97;5052578;28;20120;-82
2021/12/24 07:33:03;;;;;;;36.38;14.70;;;;;;;7.47;100.00;100506.16;5052448;28;20388;-84
2021/12/24 07:35:28;;;;;;;28.77;14.07;;;;;;;7.47;100.00;100501.00;5052540;28;20056;-81
2021/12/24 07:37:53;;;;;;;33.63;13.23;;;;;;;7.48;100.00;100506.97;5033962;28;20059;-79
2021/12/24 07:40:19;;;;;;;31.50;13.98;;;;;;;7.44;100.00;100495.19;5052597;28;20025;-82
2021/12/24 07:42:46;;;;;;;29.98;14.10;;;;;;;7.48;100.00;100502.66;5052241;28;20021;-84
2021/12/24 07:45:12;;;;;;;32.83;14.98;;;;;;;7.52;100.00;100503.31;5052361;28;20063;-78
2021/12/24 07:47:41;;;;;;;35.45;15.77;;;;;;;7.52;100.00;100499.91;5052561;28;20025;-83
2021/12/24 07:52:53;;;;;;;31.58;13.52;;;;;;;7.56;100.00;100501.38;5052121;28;20061;-79
2021/12/24 07:55:19;;;;;;;28.15;14.00;;;;;;;7.53;100.00;100507.53;5052494;28;20552;-85
2021/12/24 07:57:46;;;;;;;36.78;15.50;;;;;;;7.56;100.00;100509.09;5052250;28;20033;-85
2021/12/24 08:00:12;;;;;;;32.40;14.18;;;;;;;7.55;100.00;100499.72;5052006;28;20024;-84
2021/12/24 08:02:37;;;;;;;32.78;14.65;;;;;;;7.56;100.00;100509.91;5051820;28;20045;-86
2021/12/24 08:05:03;;;;;;;30.08;13.35;;;;;;;7.47;100.00;100495.88;5052001;28;20032;-84
2021/12/24 08:07:28;;;;;;;27.50;13.27;;;;;;;7.17;100.00;100441.03;5051975;28;20111;-85
2021/12/24 08:09:57;;;;;;;34.70;13.48;;;;;;;7.58;100.00;100507.28;5052147;28;20029;-74
2021/12/24 08:12:22;;;;;;;36.22;14.20;;;;;;;7.59;100.00;100502.06;5052351;28;20029;-81
2021/12/24 08:14:47;;;;;;;32.65;13.57;;;;;;;7.39;100.00;100472.34;5033712;28;20063;-86
2021/12/24 08:17:13;;;;;;;34.17;14.50;;;;;;;7.43;100.00;100483.25;5051995;28;20029;-83
2021/12/24 08:19:39;;;;;;;34.35;13.30;;;;;;;7.61;100.00;100500.22;5033964;28;20560;-84
2021/12/24 08:22:10;;;;;;;31.50;14.30;;;;;;;7.55;100.00;100486.88;5052036;28;20033;-78
2021/12/24 08:24:39;;;;;;;33.10;13.67;;;;;;;7.56;100.00;100489.38;5051206;28;20021;-83
2021/12/24 08:27:04;;;;;;;32.78;13.32;;;;;;;7.63;100.00;100495.81;5052275;28;20380;-84
2021/12/24 08:29:30;;;;;;;32.22;13.80;;;;;;;7.37;100.00;100442.50;5051935;28;20056;-85
2021/12/24 08:31:56;;;;;;;29.55;13.68;;;;;;;7.69;100.00;100486.97;5052376;28;20035;-84
2021/12/24 08:34:22;;;;;;;33.78;13.30;;;;;;;7.69;100.00;100490.34;5051904;28;20392;-83
2021/12/24 08:36:50;;;;;;;27.35;12.73;;;;;;;7.69;100.00;100489.53;5052135;28;20721;-81
2021/12/24 08:39:17;;;;;;;28.23;12.70;;;;;;;7.66;100.00;100489.69;5051956;28;20112;-86
2021/12/24 08:41:43;;;;;;;28.20;12.02;;;;;;;7.54;100.00;100467.25;5052202;28;20481;-82
2021/12/24 08:44:09;;;;;;;25.75;11.55;;;;;;;7.75;100.00;100507.97;5051903;28;20028;-83
2021/12/24 08:46:36;;;;;;;27.85;11.68;;;;;;;7.54;100.00;100468.06;5051817;28;20021;-84
2021/12/24 08:49:02;;;;;;;32.47;12.77;;;;;;;7.60;100.00;100469.47;5051701;28;20032;-83
2021/12/24 08:51:27;;;;;;;30.40;11.52;;;;;;;7.78;100.00;100498.47;5051953;28;20017;-86
2021/12/24 08:53:53;;;;;;;32.08;12.40;;;;;;;7.78;100.00;100494.16;5055637;28;20376;-81
2021/12/24 08:56:18;;;;;;;33.50;12.18;;;;;;;7.80;100.00;100483.78;5055585;28;20472;-83
2021/12/24 08:58:44;;;;;;;29.63;11.80;;;;;;;7.81;100.00;100483.69;5055305;28;20029;-83
2021/12/24 09:01:09;;;;;;;36.15;12.93;;;;;;;7.65;100.00;100460.59;5055414;28;20029;-86
2021/12/24 09:03:35;;;;;;;34.83;13.43;;;;;;;7.88;100.00;100485.00;5055095;28;20041;-84
2021/12/24 09:06:00;;;;;;;32.78;13.65;;;;;;;7.93;100.00;100484.72;5055367;28;20065;-80
2021/12/24 09:08:26;;;;;;;30.33;13.60;;;;;;;7.79;100.00;100451.28;5055344;28;20075;-84
2021/12/24 09:10:51;;;;;;;30.67;13.68;;;;;;;8.02;100.00;100486.75;5055450;28;20025;-86
2021/12/24 09:13:16;;;;;;;29.10;13.07;;;;;;;7.91;100.00;100471.97;5055313;28;20076;-80
2021/12/24 09:15:42;;;;;;;29.63;14.02;;;;;;;7.77;100.00;100453.94;5055137;28;20021;-76
2021/12/24 09:18:08;;;;;;;32.75;14.82;;;;;;;7.98;100.00;100480.97;5054980;28;20091;-80
2021/12/24 09:20:38;;;;;;;31.15;14.00;;;;;;;7.93;100.00;100482.97;5055038;28;20360;-82
2021/12/24 09:23:05;;;;;;;25.45;13.05;;;;;;;7.83;100.00;100465.59;5055322;28;20083;-84
2021/12/24 09:25:31;;;;;;;32.03;14.57;;;;;;;7.90;100.00;100479.75;5055007;28;20029;-86
2021/12/24 09:27:58;;;;;;;29.30;13.75;;;;;;;7.81;100.00;100463.13;5055012;28;20376;-84
2021/12/24 09:30:24;;;;;;;32.25;14.70;;;;;;;7.65;100.00;100431.50;5054957;28;20028;-84
2021/12/24 09:32:50;;;;;;;30.65;13.52;;;;;;;7.97;100.00;100494.75;5054883;28;20578;-84
2021/12/24 09:35:15;;;;;;;35.95;15.25;;;;;;;7.95;100.00;100485.44;5054978;28;20037;-84
2021/12/24 09:37:41;;;;;;;34.97;14.27;;;;;;;7.98;100.00;100482.72;5054858;28;20036;-82
2021/12/24 09:40:10;;;;;;;35.15;14.93;;;;;;;7.99;100.00;100485.22;5054882;28;20033;-82
2021/12/24 09:42:36;;;;;;;32.08;14.38;;;;;;;7.81;100.00;100463.13;5054769;28;20029;-84
2021/12/24 09:45:07;;;;;;;36.33;13.23;;;;;;;8.02;100.00;100486.75;5054498;28;20114;-83
2021/12/24 09:47:32;;;;;;;34.80;13.80;;;;;;;8.04;100.00;100490.06;5054637;28;20031;-81
2021/12/24 09:49:58;;;;;;;30.48;12.40;;;;;;;8.03;99.68;100493.56;5054432;28;20021;-80
2021/12/24 09:52:27;;;;;;;32.67;12.20;;;;;;;7.98;99.70;100478.41;5054755;28;20033;-80
2021/12/24 09:54:53;;;;;;;29.83;13.00;;;;;;;8.02;99.64;100485.03;5036351;28;20029;-83
2021/12/24 09:57:19;;;;;;;34.42;12.60;;;;;;;7.95;99.60;100470.84;5054461;28;20036;-90
2021/12/24 09:59:45;;;;;;;32.40;11.60;;;;;;;8.06;99.75;100480.50;5054083;28;20033;-77
2021/12/24 10:02:16;;;;;;;26.67;11.05;;;;;;;7.80;99.54;100434.94;5054161;28;20110;-86
2021/12/24 10:04:43;;;;;;;29.40;12.27;;;;;;;8.02;99.09;100466.19;5053208;28;20021;-86
2021/12/24 10:07:11;;;;;;;28.42;11.43;;;;;;;8.05;99.36;100477.13;5054359;28;20021;-84
2021/12/24 10:09:38;;;;;;;25.65;12.10;;;;;;;8.09;99.29;100474.38;5054366;28;20029;-84
2021/12/24 10:12:07;;;;;;;23.70;11.98;;;;;;;8.10;99.15;100484.59;5054225;28;20093;-84
2021/12/24 10:14:48;;;;;;;26.70;12.43;;;;;;;7.80;98.91;100419.50;5053945;28;20036;-86
2021/12/24 10:17:21;;;;;;;34.08;12.00;;;;;;;8.03;98.80;100460.13;5053878;28;20036;-83
2021/12/24 10:19:52;;;;;;;35.42;12.60;;;;;;;8.19;98.82;100478.91;5054218;28;20040;-86
2021/12/24 10:22:19;;;;;;;37.80;12.65;;;;;;;7.93;98.67;100430.72;5054218;28;20024;-83
2021/12/24 10:25:06;;;;;;;31.70;12.82;;;;;;;8.29;98.65;100482.59;5053962;28;20017;-85
2021/12/24 10:27:35;;;;;;;31.55;13.25;;;;;;;8.38;97.68;100478.69;5053650;28;20433;-83
2021/12/24 10:30:15;;;;;;;28.50;13.32;;;;;;;8.51;97.42;100476.19;5053520;28;20032;-83
2021/12/24 10:32:40;;;;;;;29.95;12.20;;;;;;;8.58;97.06;100468.03;5035697;28;20492;-84
2021/12/24 10:35:25;;;;;;;33.05;12.38;;;;;;;8.64;96.70;100464.22;5053924;28;20025;-85
2021/12/24 10:38:19;;;;;;;33.17;12.63;;;;;;;8.71;96.74;100460.38;5053499;28;20530;-83
2021/12/24 10:41:06;;;;;;;35.05;12.95;;;;;;;8.72;96.77;100464.59;5053718;28;20047;-85
2021/12/24 10:43:41;;;;;;;26.83;11.48;;;;;;;8.70;96.40;100468.19;5053743;28;20025;-82
2021/12/24 10:46:19;;;;;;;31.38;12.52;;;;;;;8.63;95.74;100452.28;5053669;28;20028;-88
2021/12/24 10:49:08;;;;;;;29.85;11.68;;;;;;;8.61;96.53;100444.66;5053298;28;20029;-84
2021/12/24 10:51:59;;;;;;;28.80;12.73;;;;;;;8.66;96.33;100465.00;5053335;28;20021;-83
2021/12/24 10:54:25;;;;;;;27.63;12.77;;;;;;;8.61;96.13;100459.28;5053618;28;20025;-84
2021/12/24 10:56:50;;;;;;;35.05;13.55;;;;;;;8.44;96.16;100444.03;5034328;28;20468;-79
2021/12/24 10:59:36;;;;;;;27.42;12.90;;;;;;;8.34;96.47;100433.41;5033902;28;20037;-72
2021/12/24 11:02:09;;;;;;;27.20;14.15;;;;;;;8.47;96.65;100464.44;5033053;28;20053;-79
2021/12/24 11:04:35;;;;;;;29.02;13.20;;;;;;;8.44;96.80;100462.03;5031794;28;20045;-82
2021/12/24 11:07:01;;;;;;;30.88;14.60;;;;;;;8.31;97.10;100451.63;5033334;28;20029;-74
2021/12/24 11:09:26;;;;;;;36.03;12.95;;;;;;;8.23;97.14;100439.22;5032853;28;20476;-73
2021/12/24 11:11:55;;;;;;;26.60;13.45;;;;;;;8.38;97.12;100462.41;5033004;28;20076;-81
2021/12/24 11:14:20;;;;;;;31.50;12.65;;;;;;;8.37;96.81;100463.34;5032964;28;20021;-76
2021/12/24 11:16:46;;;;;;;32.78;14.10;;;;;;;8.29;97.13;100441.44;5032882;28;20036;-82
2021/12/24 11:19:11;;;;;;;35.20;13.45;;;;;;;8.34;97.11;100454.88;5032970;28;20476;-84
2021/12/24 11:21:36;;;;;;;27.05;12.90;;;;;;;8.22;96.70;100429.84;5032852;28;20108;-80
2021/12/24 11:24:02;;;;;;;33.47;14.75;;;;;;;8.31;97.03;100446.47;5032683;28;20037;-82
2021/12/24 11:26:30;;;;;;;35.10;13.75;;;;;;;8.42;97.03;100459.56;5032722;28;20033;-85
2021/12/24 11:28:56;;;;;;;34.85;13.82;;;;;;;8.23;97.11;100436.63;5033140;28;20029;-86
2021/12/24 11:31:30;;;;;;;32.03;13.82;;;;;;;8.42;97.14;100463.88;5032931;28;20430;-84
2021/12/24 11:33:58;;;;;;;30.02;13.77;;;;;;;8.45;97.11;100455.97;5032721;28;20029;-79
2021/12/24 11:36:25;;;;;;;32.30;13.70;;;;;;;8.51;96.96;100460.75;5032715;28;20057;-80
2021/12/24 11:38:54;;;;;;;31.13;13.80;;;;;;;8.57;96.82;100458.66;5032573;28;20554;-84
2021/12/24 11:41:22;;;;;;;37.30;13.77;;;;;;;8.65;96.25;100458.16;5031330;28;20075;-72
2021/12/24 11:43:51;;;;;;;30.17;14.20;;;;;;;8.70;95.80;100463.03;5032477;28;20020;-83
2021/12/24 11:46:20;;;;;;;31.00;14.35;;;;;;;8.73;95.48;100452.56;5032500;28;20029;-82
2021/12/24 11:48:48;;;;;;;30.67;14.50;;;;;;;8.73;95.62;100455.13;5032467;28;20025;-73
2021/12/24 11:51:42;;;;;;;35.17;15.13;;;;;;;8.78;95.56;100451.38;5032490;28;20040;-78
2021/12/24 11:54:09;;;;;;;35.55;14.10;;;;;;;8.85;95.26;100452.66;5032793;28;20116;-83
2021/12/24 11:56:47;;;;;;;32.10;13.95;;;;;;;8.88;95.37;100447.31;5032581;28;20037;-81
2021/12/24 11:59:12;;;;;;;32.80;13.43;;;;;;;8.71;94.90;100424.34;5032647;28;20341;-84
2021/12/24 12:01:43;;;;;;;32.08;14.85;;;;;;;8.90;94.16;100450.59;5032481;28;20155;-80
2021/12/24 12:04:18;;;;;;;27.30;14.13;;;;;;;8.93;94.58;100446.19;5047350;28;20400;-80
2021/12/24 12:06:43;;;;;;;30.25;14.60;;;;;;;8.94;94.58;100442.69;5052263;28;20021;-86
2021/12/24 12:09:11;;;;;;;30.65;14.73;;;;;;;8.81;94.10;100420.28;5052276;28;20025;-87
2021/12/24 12:11:40;;;;;;;40.50;15.40;;;;;;;8.96;94.25;100441.69;5052437;28;20025;-84
2021/12/24 12:14:13;;;;;;;31.67;14.40;;;;;;;9.00;94.09;100447.47;5052609;28;20460;-77
2021/12/24 12:16:39;;;;;;;32.53;14.43;;;;;;;9.00;94.04;100434.56;5034307;28;20029;-85
2021/12/24 12:24:57;;;;;;;34.80;15.10;;;;;;;8.95;93.92;100434.03;5052523;28;20040;-80
2021/12/24 12:27:43;;;;;;;31.25;15.25;;;;;;;8.86;93.93;100425.16;5053637;28;20025;-83
2021/12/24 12:30:54;;;;;;;31.50;15.40;;;;;;;8.94;94.05;100430.63;5056261;28;20104;-84
2021/12/24 12:33:46;;;;;;;35.53;16.58;;;;;;;8.94;94.31;100437.53;5013774;28;20041;-84
2021/12/24 12:36:11;;;;;;;34.63;16.17;;;;;;;8.93;93.98;100443.59;5011968;28;20129;-84
2021/12/24 12:38:44;;;;;;;35.33;17.13;;;;;;;8.91;93.79;100436.81;5014300;28;20160;-83
2021/12/24 12:41:30;;;;;;;36.08;15.35;;;;;;;8.89;94.05;100433.50;5014019;28;20116;-85
2021/12/24 12:43:56;;;;;;;30.83;14.82;;;;;;;8.88;93.78;100437.00;5014099;28;20080;-82
2021/12/24 12:46:34;;;;;;;30.48;16.52;;;;;;;8.91;94.05;100435.97;5013962;28;20034;-84
2021/12/24 12:49:06;;;;;;;31.42;16.10;;;;;;;8.96;93.83;100438.28;5013631;28;20505;-84
2021/12/24 12:51:54;;;;;;;35.85;14.35;;;;;;;8.96;93.74;100439.09;5013969;28;20026;-85
2021/12/24 12:54:37;;;;;;;33.65;14.52;;;;;;;8.95;94.04;100444.31;5013734;28;20073;-85